createdAt,value
2023-05-06T00:00:58.380Z,100.00
2023-05-06T00:03:27.724Z,100.00
2023-05-06T00:06:04.259Z,100.00
2023-05-06T00:08:37.045Z,100.00
2023-05-06T00:11:17.637Z,100.00
2023-05-06T00:13:51.613Z,100.00
2023-05-06T00:16:24.913Z,100.00
2023-05-06T00:19:04.174Z,100.00
2023-05-06T00:21:42.175Z,100.00
2023-05-06T00:24:16.797Z,100.00
2023-05-06T00:26:45.960Z,100.00
2023-05-06T00:29:15.134Z,100.00
2023-05-06T00:31:45.563Z,100.00
2023-05-06T00:34:15.046Z,100.00
2023-05-06T00:36:46.512Z,100.00
2023-05-06T00:39:22.137Z,100.00
2023-05-06T00:41:55.056Z,100.00
2023-05-06T00:44:29.911Z,100.00
2023-05-06T00:47:01.447Z,100.00
2023-05-06T00:49:39.829Z,100.00
2023-05-06T00:52:08.761Z,100.00
2023-05-06T00:54:50.595Z,100.00
2023-05-06T00:57:25.275Z,100.00
2023-05-06T00:59:56.035Z,100.00
2023-05-06T01:02:39.563Z,100.00
2023-05-06T01:05:19.097Z,100.00
2023-05-06T01:08:01.115Z,100.00
2023-05-06T01:10:40.153Z,100.00
2023-05-06T01:13:16.171Z,100.00
2023-05-06T01:15:50.781Z,100.00
2023-05-06T01:18:20.537Z,100.00
2023-05-06T01:20:57.825Z,100.00
2023-05-06T01:23:29.332Z,100.00
2023-05-06T01:25:58.307Z,100.00
2023-05-06T01:38:47.478Z,100.00
2023-05-06T01:41:17.033Z,100.00
2023-05-06T01:43:45.678Z,100.00
2023-05-06T01:46:16.587Z,100.00
2023-05-06T01:48:44.855Z,100.00
2023-05-06T01:51:13.013Z,100.00
2023-05-06T01:53:41.498Z,100.00
2023-05-06T01:56:11.041Z,100.00
2023-05-06T01:58:39.295Z,100.00
2023-05-06T02:01:07.790Z,100.00
2023-05-06T02:03:37.681Z,100.00
2023-05-06T02:06:06.189Z,100.00
2023-05-06T02:08:34.288Z,100.00
2023-05-06T02:11:02.512Z,100.00
2023-05-06T02:13:32.388Z,100.00
2023-05-06T02:16:00.637Z,100.00
2023-05-06T02:18:28.832Z,100.00
2023-05-06T02:20:57.105Z,100.00
2023-05-06T02:23:25.241Z,100.00
2023-05-06T02:25:53.367Z,100.00
2023-05-06T02:28:21.510Z,100.00
2023-05-06T02:30:51.355Z,100.00
2023-05-06T02:33:19.541Z,100.00
2023-05-06T02:35:47.732Z,100.00
2023-05-06T02:38:15.905Z,100.00
2023-05-06T02:40:43.982Z,100.00
2023-05-06T02:43:12.422Z,100.00
2023-05-06T02:45:40.670Z,100.00
2023-05-06T02:48:10.307Z,100.00
2023-05-06T02:50:38.397Z,100.00
2023-05-06T02:53:06.622Z,100.00
2023-05-06T02:55:34.789Z,100.00
2023-05-06T02:58:03.279Z,100.00
2023-05-06T03:00:31.441Z,100.00
2023-05-06T03:02:59.610Z,100.00
2023-05-06T03:05:29.307Z,100.00
2023-05-06T03:07:57.718Z,100.00
2023-05-06T03:10:25.983Z,100.00
2023-05-06T03:12:54.238Z,100.00
2023-05-06T03:15:22.429Z,100.00
2023-05-06T03:17:50.608Z,100.00
2023-05-06T03:20:18.901Z,100.00
2023-05-06T03:22:48.433Z,100.00
2023-05-06T03:25:16.711Z,100.00
2023-05-06T03:27:44.828Z,100.00
2023-05-06T03:30:13.781Z,100.00
2023-05-06T03:32:41.999Z,100.00
2023-05-06T03:35:11.733Z,100.00
2023-05-06T03:37:40.174Z,100.00
2023-05-06T03:40:10.993Z,100.00
2023-05-06T03:42:39.113Z,100.00
2023-05-06T03:45:08.869Z,100.00
2023-05-06T03:47:38.255Z,100.00
2023-05-06T03:50:07.336Z,100.00
2023-05-06T03:52:35.605Z,100.00
2023-05-06T03:55:03.762Z,100.00
2023-05-06T03:57:33.380Z,100.00
2023-05-06T04:00:01.577Z,100.00
2023-05-06T04:02:30.232Z,100.00
2023-05-06T04:04:58.630Z,100.00
2023-05-06T04:07:26.776Z,100.00
2023-05-06T04:09:55.876Z,100.00
2023-05-06T04:12:24.090Z,100.00
2023-05-06T04:14:53.672Z,100.00
2023-05-06T04:17:21.873Z,100.00
2023-05-06T04:19:50.069Z,100.00
2023-05-06T04:22:18.843Z,100.00
2023-05-06T04:24:47.063Z,100.00
2023-05-06T04:27:15.194Z,100.00
2023-05-06T04:29:43.423Z,100.00
2023-05-06T04:32:13.756Z,100.00
2023-05-06T04:34:41.921Z,100.00
2023-05-06T04:37:10.353Z,100.00
2023-05-06T04:39:39.457Z,100.00
2023-05-06T04:42:07.980Z,100.00
2023-05-06T04:44:36.723Z,100.00
2023-05-06T04:47:04.899Z,100.00
2023-05-06T04:49:34.698Z,100.00
2023-05-06T04:52:02.889Z,100.00
2023-05-06T04:54:31.005Z,100.00
2023-05-06T04:56:59.207Z,100.00
2023-05-06T04:59:27.563Z,100.00
2023-05-06T05:01:55.672Z,100.00
2023-05-06T05:04:23.901Z,100.00
2023-05-06T05:06:53.394Z,100.00
2023-05-06T05:09:21.612Z,100.00
2023-05-06T05:11:49.781Z,100.00
2023-05-06T05:14:17.937Z,100.00
2023-05-06T05:16:46.177Z,100.00
2023-05-06T05:19:14.364Z,100.00
2023-05-06T05:21:42.532Z,100.00
2023-05-06T05:24:12.164Z,100.00
2023-05-06T05:26:40.246Z,100.00
2023-05-06T05:29:08.393Z,100.00
2023-05-06T05:31:36.994Z,100.00
2023-05-06T05:34:05.156Z,100.00
2023-05-06T05:36:33.250Z,100.00
2023-05-06T05:39:01.460Z,100.00
2023-05-06T05:41:30.988Z,100.00
2023-05-06T05:43:59.062Z,100.00
2023-05-06T05:46:27.210Z,100.00
2023-05-06T05:48:56.664Z,100.00
2023-05-06T05:51:24.673Z,100.00
2023-05-06T05:53:53.413Z,100.00
2023-05-06T05:56:21.657Z,100.00
2023-05-06T05:58:53.833Z,100.00
2023-05-06T06:01:22.140Z,100.00
2023-05-06T06:03:50.544Z,100.00
2023-05-06T06:06:18.835Z,100.00
2023-05-06T06:08:46.992Z,100.00
2023-05-06T06:11:15.157Z,100.00
2023-05-06T06:13:43.755Z,100.00
2023-05-06T06:16:13.446Z,100.00
2023-05-06T06:18:47.023Z,100.00
2023-05-06T06:21:15.891Z,100.00
2023-05-06T06:23:44.058Z,100.00
2023-05-06T06:26:13.601Z,100.00
2023-05-06T06:28:42.156Z,100.00
2023-05-06T06:31:10.418Z,100.00
2023-05-06T06:33:40.048Z,100.00
2023-05-06T06:36:09.486Z,100.00
2023-05-06T06:38:37.606Z,100.00
2023-05-06T06:41:06.205Z,100.00
2023-05-06T06:43:34.356Z,100.00
2023-05-06T06:46:02.711Z,100.00
2023-05-06T06:48:31.440Z,100.00
2023-05-06T06:51:01.118Z,100.00
2023-05-06T06:53:29.620Z,100.00
2023-05-06T06:55:57.971Z,100.00
2023-05-06T06:58:26.137Z,100.00
2023-05-06T07:00:55.718Z,100.00
2023-05-06T07:03:23.959Z,100.00
2023-05-06T07:05:52.190Z,100.00
2023-05-06T07:08:22.421Z,100.00
2023-05-06T07:10:50.661Z,100.00
2023-05-06T07:13:20.716Z,100.00
2023-05-06T07:15:48.963Z,100.00
2023-05-06T07:18:17.266Z,100.00
2023-05-06T07:20:45.488Z,100.00
2023-05-06T07:23:14.006Z,100.00
2023-05-06T07:25:43.714Z,100.00
2023-05-06T07:28:13.146Z,100.00
2023-05-06T07:30:41.889Z,100.00
2023-05-06T07:33:10.157Z,100.00
2023-05-06T07:35:38.338Z,100.00
2023-05-06T07:38:06.671Z,100.00
2023-05-06T07:40:35.071Z,100.00
2023-05-06T07:43:04.750Z,100.00
2023-05-06T07:45:34.792Z,100.00
2023-05-06T07:48:03.192Z,100.00
2023-05-06T07:50:31.830Z,100.00
2023-05-06T07:53:00.711Z,100.00
2023-05-06T07:55:29.777Z,100.00
2023-05-06T07:57:58.018Z,100.00
2023-05-06T08:00:28.155Z,100.00
2023-05-06T08:02:56.493Z,100.00
2023-05-06T08:05:24.816Z,100.00
2023-05-06T08:07:54.240Z,100.00
2023-05-06T08:10:23.141Z,100.00
2023-05-06T08:12:51.429Z,100.00
2023-05-06T08:15:19.779Z,100.00
2023-05-06T08:17:50.035Z,100.00
2023-05-06T08:20:18.191Z,100.00
2023-05-06T08:22:46.470Z,100.00
2023-05-06T08:25:22.652Z,100.00
2023-05-06T08:27:53.177Z,100.00
2023-05-06T08:30:21.960Z,100.00
2023-05-06T08:32:58.925Z,100.00
2023-05-06T08:35:27.092Z,100.00
2023-05-06T08:37:55.362Z,100.00
2023-05-06T08:40:24.758Z,100.00
2023-05-06T08:42:53.001Z,100.00
2023-05-06T08:45:21.675Z,100.00
2023-05-06T08:47:54.588Z,100.00
2023-05-06T08:50:26.216Z,100.00
2023-05-06T08:53:04.897Z,100.00
2023-05-06T08:55:34.476Z,100.00
2023-05-06T08:58:04.476Z,100.00
2023-05-06T09:00:45.145Z,100.00
2023-05-06T09:03:17.383Z,100.00
2023-05-06T09:05:47.417Z,100.00
2023-05-06T09:08:16.141Z,100.00
2023-05-06T09:10:46.279Z,100.00
2023-05-06T09:13:16.703Z,100.00
2023-05-06T09:15:47.528Z,100.00
2023-05-06T09:18:22.759Z,100.00
2023-05-06T09:20:59.387Z,100.00
2023-05-06T09:23:33.485Z,100.00
2023-05-06T09:26:07.453Z,100.00
2023-05-06T09:28:36.972Z,100.00
2023-05-06T09:31:10.249Z,100.00
2023-05-06T09:33:45.755Z,100.00
2023-05-06T09:36:14.513Z,100.00
2023-05-06T09:38:43.791Z,100.00
2023-05-06T09:41:17.406Z,100.00
2023-05-06T09:43:49.979Z,100.00
2023-05-06T09:46:20.387Z,100.00
2023-05-06T09:48:54.293Z,100.00
2023-05-06T09:51:26.859Z,100.00
2023-05-06T09:54:02.594Z,100.00
2023-05-06T09:56:37.380Z,100.00
2023-05-06T09:59:08.269Z,100.00
2023-05-06T10:01:38.325Z,100.00
2023-05-06T10:04:12.919Z,100.00
2023-05-06T10:06:43.021Z,100.00
2023-05-06T10:12:30.114Z,100.00
2023-05-06T10:14:58.517Z,100.00
2023-05-06T10:17:27.677Z,100.00
2023-05-06T10:19:58.992Z,100.00
2023-05-06T10:22:34.940Z,100.00
2023-05-06T10:25:12.163Z,100.00
2023-05-06T10:27:50.199Z,100.00
2023-05-06T10:30:20.677Z,100.00
2023-05-06T10:39:48.365Z,100.00
2023-05-06T10:42:18.698Z,100.00
2023-05-06T10:45:08.612Z,100.00
2023-05-06T10:48:33.594Z,100.00
2023-05-06T10:51:26.126Z,100.00
2023-05-06T10:54:06.998Z,100.00
2023-05-06T10:56:38.096Z,100.00
2023-05-06T10:59:18.836Z,100.00
2023-05-06T11:01:52.498Z,100.00
2023-05-06T11:04:21.178Z,100.00
2023-05-06T11:06:51.004Z,100.00
2023-05-06T11:13:02.191Z,100.00
2023-05-06T11:16:21.518Z,100.00
2023-05-06T11:20:09.853Z,100.00
2023-05-06T11:22:45.992Z,100.00
2023-05-06T11:25:18.729Z,100.00
2023-05-06T11:27:50.264Z,100.00
2023-05-06T11:30:19.785Z,100.00
2023-05-06T11:32:48.102Z,100.00
2023-05-06T11:35:18.722Z,100.00
2023-05-06T11:37:48.800Z,100.00
2023-05-06T11:40:19.498Z,100.00
2023-05-06T11:42:49.324Z,100.00
2023-05-06T11:45:19.209Z,100.00
2023-05-06T11:47:48.949Z,100.00
2023-05-06T11:50:23.526Z,100.00
2023-05-06T11:52:52.583Z,100.00
2023-05-06T11:55:23.375Z,100.00
2023-05-06T11:57:59.162Z,100.00
2023-05-06T12:00:41.125Z,100.00
2023-05-06T12:03:44.006Z,100.00
2023-05-06T12:06:14.557Z,100.00
2023-05-06T12:08:44.348Z,100.00
2023-05-06T12:11:21.981Z,100.00
2023-05-06T12:14:07.381Z,100.00
2023-05-06T12:17:00.771Z,98.83
2023-05-06T12:19:35.097Z,100.00
2023-05-06T12:22:21.458Z,98.83
2023-05-06T12:24:54.566Z,97.29
2023-05-06T12:27:38.452Z,97.23
2023-05-06T12:30:38.042Z,98.09
2023-05-06T12:33:08.926Z,98.29
2023-05-06T12:35:38.298Z,97.80
2023-05-06T12:38:11.394Z,94.30
2023-05-06T12:41:08.180Z,93.05
2023-05-06T12:44:16.934Z,90.91
2023-05-06T12:46:53.426Z,89.49
2023-05-06T12:49:22.784Z,88.78
2023-05-06T12:52:07.005Z,90.65
2023-05-06T12:54:37.620Z,90.86
2023-05-06T12:57:08.554Z,92.33
2023-05-06T12:59:39.678Z,93.43
2023-05-06T13:02:10.362Z,91.41
2023-05-06T13:04:45.518Z,93.12
2023-05-06T13:07:15.406Z,91.05
2023-05-06T13:09:47.195Z,94.23
2023-05-06T13:12:17.850Z,88.69
2023-05-06T13:14:48.693Z,86.90
2023-05-06T13:17:18.179Z,90.25
2023-05-06T13:19:46.491Z,87.80
2023-05-06T13:22:19.064Z,87.29
2023-05-06T13:24:48.772Z,85.25
2023-05-06T13:27:17.584Z,86.72
2023-05-06T13:29:48.685Z,90.86
2023-05-06T13:32:18.069Z,90.38
2023-05-06T13:34:46.852Z,89.62
2023-05-06T13:37:16.701Z,90.30
2023-05-06T13:39:47.063Z,90.19
2023-05-06T13:42:37.533Z,90.57
2023-05-06T13:45:09.364Z,90.90
2023-05-06T13:47:37.997Z,91.64
2023-05-06T13:50:09.044Z,88.47
2023-05-06T13:52:41.089Z,86.98
2023-05-06T13:55:20.408Z,89.29
2023-05-06T14:02:01.270Z,88.64
2023-05-06T14:04:31.074Z,86.51
2023-05-06T14:06:59.993Z,88.49
2023-05-06T14:09:34.803Z,88.87
2023-05-06T14:12:03.153Z,88.34
2023-05-06T14:14:31.610Z,88.53
2023-05-06T14:17:01.561Z,86.07
2023-05-06T14:19:31.697Z,88.00
2023-05-06T14:22:02.516Z,86.63
2023-05-06T14:24:32.299Z,87.61
2023-05-06T14:27:02.055Z,90.18
2023-05-06T14:29:32.585Z,85.25
2023-05-06T14:32:23.814Z,87.05
2023-05-06T14:35:04.807Z,88.77
2023-05-06T14:37:36.410Z,89.59
2023-05-06T14:40:10.149Z,90.40
2023-05-06T14:42:38.591Z,91.38
2023-05-06T14:45:09.782Z,91.83
2023-05-06T14:47:40.009Z,92.89
2023-05-06T14:50:13.208Z,94.23
2023-05-06T14:52:42.152Z,96.79
2023-05-06T14:55:21.414Z,97.10
2023-05-06T14:57:53.948Z,99.46
2023-05-06T15:00:29.423Z,100.00
2023-05-06T15:03:09.890Z,100.00
2023-05-06T15:05:41.833Z,100.00
2023-05-06T15:08:12.757Z,100.00
2023-05-06T15:10:41.422Z,100.00
2023-05-06T15:13:09.690Z,100.00
2023-05-06T15:15:37.999Z,100.00
2023-05-06T15:18:09.200Z,100.00
2023-05-06T15:20:39.169Z,100.00
2023-05-06T15:23:07.381Z,100.00
2023-05-06T15:25:36.853Z,100.00
2023-05-06T15:28:06.174Z,100.00
2023-05-06T15:30:34.430Z,100.00
2023-05-06T15:33:11.934Z,100.00
2023-05-06T15:35:48.457Z,100.00
2023-05-06T15:38:17.122Z,100.00
2023-05-06T15:40:47.338Z,100.00
2023-05-06T15:43:22.701Z,100.00
2023-05-06T15:45:52.311Z,100.00
2023-05-06T15:48:20.649Z,100.00
2023-05-06T15:50:50.312Z,100.00
2023-05-06T15:53:20.237Z,100.00
2023-05-06T15:55:56.558Z,100.00
2023-05-06T15:58:30.620Z,100.00
2023-05-06T16:00:58.898Z,100.00
2023-05-06T16:03:27.905Z,100.00
2023-05-06T16:05:59.536Z,100.00
2023-05-06T16:08:27.822Z,100.00
2023-05-06T16:10:56.105Z,100.00
2023-05-06T16:13:24.470Z,100.00
2023-05-06T16:15:52.816Z,100.00
2023-05-06T16:18:21.509Z,100.00
2023-05-06T16:20:49.747Z,100.00
2023-05-06T16:23:21.439Z,100.00
2023-05-06T16:25:49.690Z,100.00
2023-05-06T16:28:17.964Z,100.00
2023-05-06T16:30:46.549Z,100.00
2023-05-06T16:33:14.959Z,100.00
2023-05-06T16:35:43.219Z,100.00
2023-05-06T16:38:20.352Z,100.00
2023-05-06T16:40:53.629Z,100.00
2023-05-06T16:43:22.224Z,100.00
2023-05-06T16:45:50.480Z,100.00
2023-05-06T16:48:18.894Z,100.00
2023-05-06T16:50:47.547Z,100.00
2023-05-06T16:53:17.415Z,100.00
2023-05-06T16:55:48.849Z,100.00
2023-05-06T16:58:18.676Z,100.00
2023-05-06T17:00:47.061Z,100.00
2023-05-06T17:03:15.662Z,100.00
2023-05-06T17:05:44.475Z,100.00
2023-05-06T17:08:13.776Z,100.00
2023-05-06T17:10:43.754Z,100.00
2023-05-06T17:13:12.206Z,100.00
2023-05-06T17:15:43.329Z,100.00
2023-05-06T17:18:11.653Z,100.00
2023-05-06T17:20:54.503Z,100.00
2023-05-06T17:23:24.891Z,100.00
2023-05-06T17:25:53.110Z,100.00
2023-05-06T17:28:21.380Z,100.00
2023-05-06T17:30:51.045Z,100.00
2023-05-06T17:33:19.337Z,100.00
2023-05-06T17:35:47.663Z,100.00
2023-05-06T17:38:16.947Z,100.00
2023-05-06T17:40:45.190Z,100.00
2023-05-06T17:43:22.869Z,100.00
2023-05-06T17:45:52.646Z,100.00
2023-05-06T17:48:20.969Z,100.00
2023-05-06T17:50:49.546Z,100.00
2023-05-06T17:53:17.805Z,100.00
2023-05-06T17:55:46.156Z,100.00
2023-05-06T17:58:14.853Z,100.00
2023-05-06T18:00:43.214Z,100.00
2023-05-06T18:03:12.959Z,100.00
2023-05-06T18:05:41.257Z,100.00
2023-05-06T18:08:09.777Z,100.00
2023-05-06T18:10:44.817Z,100.00
2023-05-06T18:13:16.032Z,100.00
2023-05-06T18:15:44.344Z,100.00
2023-05-06T18:18:14.170Z,100.00
2023-05-06T18:20:43.107Z,100.00
2023-05-06T18:23:11.369Z,100.00
2023-05-06T18:25:39.663Z,100.00
2023-05-06T18:28:07.847Z,100.00
2023-05-06T18:30:36.919Z,100.00
2023-05-06T18:33:05.329Z,100.00
2023-05-06T18:35:34.995Z,100.00
2023-05-06T18:38:03.610Z,100.00
2023-05-06T18:40:32.120Z,100.00
2023-05-06T18:43:00.374Z,100.00
2023-05-06T18:45:29.580Z,100.00
2023-05-06T18:47:57.930Z,100.00
2023-05-06T18:50:26.191Z,100.00
2023-05-06T18:52:56.633Z,100.00
2023-05-06T18:55:24.893Z,100.00
2023-05-06T18:57:54.078Z,100.00
2023-05-06T19:00:23.061Z,100.00
2023-05-06T19:02:51.287Z,100.00
2023-05-06T19:05:19.654Z,100.00
2023-05-06T19:07:48.263Z,100.00
2023-05-06T19:10:18.028Z,100.00
2023-05-06T19:12:46.882Z,100.00
2023-05-06T19:15:15.455Z,100.00
2023-05-06T19:17:43.789Z,100.00
2023-05-06T19:20:14.453Z,100.00
2023-05-06T19:22:42.929Z,100.00
2023-05-06T19:25:12.378Z,100.00
2023-05-06T19:27:42.182Z,100.00
2023-05-06T19:30:11.579Z,100.00
2023-05-06T19:32:40.517Z,100.00
2023-05-06T19:35:24.242Z,100.00
2023-05-06T19:37:52.551Z,100.00
2023-05-06T19:40:22.013Z,100.00
2023-05-06T19:42:52.084Z,100.00
2023-05-06T19:45:20.470Z,100.00
2023-05-06T19:47:48.717Z,100.00
2023-05-06T19:50:17.698Z,100.00
2023-05-06T19:52:45.934Z,100.00
2023-05-06T19:55:14.287Z,100.00
2023-05-06T19:57:42.544Z,100.00
2023-05-06T20:00:14.142Z,100.00
2023-05-06T20:02:42.429Z,100.00
2023-05-06T20:05:11.574Z,100.00
2023-05-06T20:07:41.355Z,100.00
2023-05-06T20:10:13.569Z,100.00
2023-05-06T20:12:43.199Z,100.00
2023-05-06T20:15:13.552Z,100.00
2023-05-06T20:17:42.121Z,100.00
2023-05-06T20:20:11.592Z,100.00
2023-05-06T20:22:40.298Z,100.00
2023-05-06T20:25:10.427Z,100.00
2023-05-06T20:27:39.293Z,100.00
2023-05-06T20:30:09.712Z,100.00
2023-05-06T20:32:41.062Z,100.00
2023-05-06T20:35:10.196Z,100.00
2023-05-06T20:37:38.830Z,100.00
2023-05-06T20:40:09.867Z,100.00
2023-05-06T20:42:38.055Z,100.00
2023-05-06T20:45:07.669Z,100.00
2023-05-06T20:47:38.831Z,100.00
2023-05-06T20:50:07.866Z,100.00
2023-05-06T20:52:36.187Z,100.00
2023-05-06T20:55:07.379Z,100.00
2023-05-06T20:57:37.110Z,100.00
2023-05-06T21:00:07.914Z,100.00
2023-05-06T21:02:49.559Z,100.00
2023-05-06T21:05:19.239Z,100.00
2023-05-06T21:07:47.493Z,100.00
2023-05-06T21:10:15.900Z,100.00
2023-05-06T21:12:48.624Z,100.00
2023-05-06T21:15:16.917Z,100.00
2023-05-06T21:17:46.982Z,100.00
2023-05-06T21:20:17.369Z,100.00
2023-05-06T21:22:45.748Z,100.00
2023-05-06T21:25:14.550Z,100.00
2023-05-06T21:27:43.194Z,100.00
2023-05-06T21:30:12.078Z,100.00
2023-05-06T21:32:40.360Z,100.00
2023-05-06T21:35:10.848Z,100.00
2023-05-06T21:37:39.413Z,100.00
2023-05-06T21:40:08.878Z,100.00
2023-05-06T21:42:37.167Z,100.00
2023-05-06T21:45:06.163Z,100.00
2023-05-06T21:47:34.452Z,100.00
2023-05-06T21:50:02.951Z,100.00
2023-05-06T21:52:32.668Z,100.00
2023-05-06T21:55:01.273Z,100.00
2023-05-06T21:57:30.287Z,100.00
2023-05-06T21:59:58.566Z,100.00
2023-05-06T22:02:26.987Z,100.00
2023-05-06T22:04:55.349Z,100.00
2023-05-06T22:07:23.624Z,100.00
2023-05-06T22:09:53.327Z,100.00
2023-05-06T22:12:21.919Z,100.00
2023-05-06T22:14:50.224Z,100.00
2023-05-06T22:17:18.487Z,100.00
2023-05-06T22:19:47.992Z,100.00
2023-05-06T22:22:16.710Z,100.00
2023-05-06T22:24:45.002Z,100.00
2023-05-06T22:27:16.968Z,100.00
2023-05-06T22:29:45.217Z,100.00
2023-05-06T22:32:13.768Z,100.00
2023-05-06T22:34:41.974Z,100.00
2023-05-06T22:37:10.507Z,100.00
2023-05-06T22:39:39.238Z,100.00
2023-05-06T22:42:08.564Z,100.00
2023-05-06T22:44:39.606Z,100.00
2023-05-06T22:47:07.950Z,100.00
2023-05-06T22:49:36.497Z,100.00
2023-05-06T22:52:04.997Z,100.00
2023-05-06T22:54:33.248Z,100.00
2023-05-06T22:57:02.242Z,100.00
2023-05-06T22:59:30.417Z,100.00
2023-05-06T23:02:00.124Z,100.00
2023-05-06T23:04:28.409Z,100.00
2023-05-06T23:06:57.484Z,100.00
2023-05-06T23:09:25.841Z,100.00
2023-05-06T23:11:54.003Z,100.00
2023-05-06T23:14:22.875Z,100.00
2023-05-06T23:16:51.218Z,100.00
2023-05-06T23:19:21.784Z,100.00
2023-05-06T23:21:50.070Z,100.00
2023-05-06T23:24:18.310Z,100.00
2023-05-06T23:26:46.525Z,100.00
2023-05-06T23:29:16.138Z,100.00
2023-05-06T23:31:44.371Z,100.00
2023-05-06T23:34:12.623Z,100.00
2023-05-06T23:36:51.839Z,100.00
2023-05-06T23:39:20.071Z,100.00
2023-05-06T23:41:48.255Z,100.00
2023-05-06T23:44:16.484Z,100.00
2023-05-06T23:46:44.780Z,100.00
2023-05-06T23:49:13.110Z,100.00
2023-05-06T23:51:41.559Z,100.00
2023-05-06T23:54:11.235Z,100.00
2023-05-06T23:56:39.452Z,100.00
2023-05-06T23:59:07.693Z,100.00
